createdAt,value
2019-03-26T00:01:49.857Z,16.00
2019-03-26T00:04:21.509Z,17.20
2019-03-26T00:06:52.036Z,17.87
2019-03-26T00:09:23.388Z,15.03
2019-03-26T00:11:54.730Z,11.65
2019-03-26T00:14:25.974Z,21.23
2019-03-26T00:16:56.501Z,19.50
2019-03-26T00:19:27.132Z,15.40
2019-03-26T00:21:58.477Z,18.48
2019-03-26T00:24:29.109Z,20.60
2019-03-26T00:26:59.734Z,17.32
2019-03-26T00:29:31.878Z,19.40
2019-03-26T00:32:03.249Z,12.68
2019-03-26T00:34:33.880Z,17.82
2019-03-26T00:37:05.228Z,15.80
2019-03-26T00:39:36.681Z,17.65
2019-03-26T00:42:07.038Z,14.38
2019-03-26T00:44:38.103Z,16.37
2019-03-26T00:47:11.206Z,18.20
2019-03-26T00:49:42.576Z,14.33
2019-03-26T00:52:13.721Z,17.48
2019-03-26T00:54:44.249Z,13.40
2019-03-26T00:57:14.983Z,21.40
2019-03-26T00:59:46.328Z,15.78
2019-03-26T01:02:16.812Z,16.52
2019-03-26T01:04:48.300Z,19.52
2019-03-26T01:07:19.037Z,12.88
2019-03-26T01:09:52.739Z,14.80
2019-03-26T01:12:23.365Z,16.90
2019-03-26T01:14:54.512Z,11.90
2019-03-26T01:17:26.563Z,16.70
2019-03-26T01:19:59.072Z,19.55
2019-03-26T01:22:33.157Z,15.78
2019-03-26T01:25:03.390Z,24.12
2019-03-26T01:27:34.009Z,14.38
2019-03-26T01:30:06.907Z,16.77
2019-03-26T01:32:38.211Z,14.85
2019-03-26T01:35:08.563Z,16.77
2019-03-26T01:37:40.625Z,18.07
2019-03-26T01:40:12.264Z,16.62
2019-03-26T01:42:42.801Z,20.23
2019-03-26T01:45:13.438Z,22.98
2019-03-26T01:47:43.966Z,15.83
2019-03-26T01:50:14.901Z,16.60
2019-03-26T01:52:45.128Z,13.43
2019-03-26T01:55:16.681Z,20.43
2019-03-26T01:57:47.201Z,13.28
2019-03-26T02:00:17.730Z,20.55
2019-03-26T02:02:50.762Z,20.43
2019-03-26T02:05:21.452Z,15.38
2019-03-26T02:07:51.864Z,17.77
2019-03-26T02:10:22.399Z,14.43
2019-03-26T02:12:52.928Z,16.65
2019-03-26T02:15:30.627Z,18.87
2019-03-26T02:18:00.949Z,22.93
2019-03-26T02:20:31.335Z,15.45
2019-03-26T02:23:01.896Z,19.32
2019-03-26T02:25:32.530Z,17.75
2019-03-26T02:28:03.161Z,20.80
2019-03-26T02:30:33.791Z,17.98
2019-03-26T02:33:05.108Z,19.10
2019-03-26T02:35:39.759Z,16.73
2019-03-26T02:38:09.855Z,17.77
2019-03-26T02:40:40.509Z,16.02
2019-03-26T02:43:11.446Z,18.60
2019-03-26T02:45:43.045Z,13.18
2019-03-26T02:48:14.181Z,17.35
2019-03-26T02:50:44.669Z,14.53
2019-03-26T02:53:15.199Z,19.15
2019-03-26T02:55:45.824Z,14.63
2019-03-26T02:58:16.916Z,12.30
2019-03-26T03:00:47.518Z,16.40
2019-03-26T03:03:20.320Z,20.40
2019-03-26T03:05:51.106Z,16.10
2019-03-26T03:08:22.659Z,12.10
2019-03-26T03:10:53.305Z,12.15
2019-03-26T03:13:24.741Z,17.32
2019-03-26T03:15:54.921Z,17.60
2019-03-26T03:18:25.401Z,17.23
2019-03-26T03:20:56.219Z,19.17
2019-03-26T03:23:26.705Z,14.78
2019-03-26T03:25:57.789Z,17.00
2019-03-26T03:28:28.011Z,13.90
2019-03-26T03:30:58.641Z,16.12
2019-03-26T03:33:29.986Z,11.43
2019-03-26T03:36:00.511Z,16.93
2019-03-26T03:38:31.456Z,19.27
2019-03-26T03:41:02.674Z,13.25
2019-03-26T03:43:33.017Z,16.42
2019-03-26T03:46:03.741Z,25.20
2019-03-26T03:48:34.169Z,19.40
2019-03-26T03:51:04.807Z,16.25
2019-03-26T03:53:35.337Z,18.52
2019-03-26T03:56:06.072Z,18.57
2019-03-26T03:58:36.677Z,19.67
2019-03-26T04:01:08.551Z,14.55
2019-03-26T04:03:39.183Z,16.48
2019-03-26T04:06:10.978Z,14.85
2019-03-26T04:08:41.877Z,21.40
2019-03-26T04:11:12.210Z,18.65
2019-03-26T04:13:42.724Z,19.77
2019-03-26T04:16:14.049Z,18.17
2019-03-26T04:18:44.808Z,16.93
2019-03-26T04:21:15.568Z,24.05
2019-03-26T04:23:46.473Z,17.30
2019-03-26T04:26:18.335Z,18.25
2019-03-26T04:28:49.234Z,19.87
2019-03-26T04:31:20.515Z,21.10
2019-03-26T04:33:51.351Z,15.90
2019-03-26T04:36:26.147Z,19.92
2019-03-26T04:38:54.811Z,21.15
2019-03-26T04:41:25.707Z,18.40
2019-03-26T04:43:56.534Z,19.12
2019-03-26T04:46:27.264Z,24.18
2019-03-26T04:48:57.896Z,25.30
2019-03-26T04:51:28.629Z,22.13
2019-03-26T04:53:59.958Z,24.05
2019-03-26T04:56:31.724Z,23.02
2019-03-26T04:59:03.495Z,30.55
2019-03-26T05:01:34.835Z,24.63
2019-03-26T05:04:05.257Z,17.98
2019-03-26T05:06:38.298Z,19.48
2019-03-26T05:09:08.165Z,21.23
2019-03-26T05:11:39.609Z,19.77
2019-03-26T05:14:10.645Z,18.60
2019-03-26T05:16:41.482Z,20.17
2019-03-26T05:19:13.527Z,21.73
2019-03-26T05:21:44.205Z,19.62
2019-03-26T05:24:16.239Z,26.45
2019-03-26T05:26:46.559Z,23.30
2019-03-26T05:29:17.147Z,25.48
2019-03-26T05:31:48.026Z,28.45
2019-03-26T05:34:19.273Z,26.00
2019-03-26T05:36:51.556Z,26.33
2019-03-26T05:39:23.189Z,27.60
2019-03-26T05:41:53.844Z,31.37
2019-03-26T05:44:27.218Z,25.48
2019-03-26T05:46:58.154Z,33.78
2019-03-26T05:49:28.745Z,37.50
2019-03-26T05:51:59.745Z,37.73
2019-03-26T05:54:32.092Z,49.05
2019-03-26T05:57:02.624Z,46.02
2019-03-26T05:59:33.557Z,50.95
2019-03-26T06:02:13.793Z,51.88
2019-03-26T06:04:38.709Z,51.15
2019-03-26T06:07:10.158Z,60.67
2019-03-26T06:09:41.632Z,75.57
2019-03-26T06:12:12.340Z,75.40
2019-03-26T06:14:42.983Z,66.05
2019-03-26T06:17:13.612Z,76.67
2019-03-26T06:19:44.242Z,58.38
2019-03-26T06:22:15.682Z,63.80
2019-03-26T06:24:46.317Z,78.52
2019-03-26T06:27:19.151Z,62.43
2019-03-26T06:29:49.923Z,59.00
2019-03-26T06:32:20.760Z,88.65
2019-03-26T06:34:51.429Z,69.60
2019-03-26T06:37:22.326Z,77.85
2019-03-26T06:39:53.059Z,82.78
2019-03-26T06:42:23.798Z,79.55
2019-03-26T06:44:54.455Z,67.37
2019-03-26T06:47:25.363Z,72.42
2019-03-26T06:49:56.395Z,75.32
2019-03-26T06:52:27.039Z,61.35
2019-03-26T06:54:57.771Z,61.68
2019-03-26T06:57:35.577Z,58.70
2019-03-26T07:00:00.632Z,52.38
2019-03-26T07:02:31.423Z,58.70
2019-03-26T07:05:02.135Z,55.67
2019-03-26T07:07:32.764Z,60.58
2019-03-26T07:10:05.128Z,62.17
2019-03-26T07:12:35.597Z,61.35
2019-03-26T07:15:07.456Z,71.50
2019-03-26T07:17:37.941Z,62.40
2019-03-26T07:20:08.670Z,65.57
2019-03-26T07:22:39.304Z,62.93
2019-03-26T07:25:09.994Z,68.07
2019-03-26T07:27:40.875Z,69.05
2019-03-26T07:30:12.006Z,74.67
2019-03-26T07:32:42.139Z,81.95
2019-03-26T07:35:12.859Z,69.72
2019-03-26T07:37:45.915Z,77.32
2019-03-26T07:40:16.675Z,78.50
2019-03-26T07:42:47.516Z,78.55
2019-03-26T07:45:18.118Z,79.67
2019-03-26T07:47:51.143Z,74.35
2019-03-26T07:50:21.720Z,80.92
2019-03-26T07:52:52.693Z,76.25
2019-03-26T07:55:23.234Z,75.37
2019-03-26T07:57:54.168Z,69.75
2019-03-26T08:00:36.707Z,71.05
2019-03-26T08:03:07.204Z,75.05
2019-03-26T08:05:37.625Z,76.80
2019-03-26T08:08:08.969Z,71.37
2019-03-26T08:10:39.623Z,73.70
2019-03-26T08:13:11.530Z,66.60
2019-03-26T08:15:42.925Z,86.80
2019-03-26T08:18:13.947Z,68.15
2019-03-26T08:20:44.782Z,79.50
2019-03-26T08:23:15.519Z,70.35
2019-03-26T08:25:46.553Z,81.82
2019-03-26T08:28:17.189Z,71.10
2019-03-26T08:30:50.112Z,62.27
2019-03-26T08:33:23.266Z,69.20
2019-03-26T08:35:53.684Z,70.05
2019-03-26T08:38:24.528Z,62.98
2019-03-26T08:40:56.483Z,66.62
2019-03-26T08:43:27.521Z,71.17
2019-03-26T08:45:58.280Z,72.40
2019-03-26T08:48:29.092Z,70.47
2019-03-26T08:51:00.031Z,67.40
2019-03-26T08:53:31.676Z,79.35
2019-03-26T08:56:02.411Z,73.97
2019-03-26T08:58:33.049Z,72.20
2019-03-26T09:01:03.698Z,82.67
2019-03-26T09:03:35.329Z,72.78
2019-03-26T09:06:06.070Z,74.65
2019-03-26T09:08:36.591Z,66.80
2019-03-26T09:11:07.416Z,74.50
2019-03-26T09:13:38.048Z,62.88
2019-03-26T09:16:08.782Z,61.88
2019-03-26T09:18:39.435Z,66.97
2019-03-26T09:21:11.096Z,59.85
2019-03-26T09:23:42.208Z,55.92
2019-03-26T09:26:12.774Z,54.77
2019-03-26T09:28:47.669Z,58.78
2019-03-26T09:31:16.671Z,59.00
2019-03-26T09:33:49.445Z,63.10
2019-03-26T09:36:21.091Z,60.23
2019-03-26T09:38:51.621Z,70.97
2019-03-26T09:41:22.967Z,71.00
2019-03-26T09:43:53.289Z,68.15
2019-03-26T09:46:24.538Z,83.05
2019-03-26T09:48:56.090Z,75.20
2019-03-26T09:51:26.629Z,79.45
2019-03-26T09:53:57.702Z,73.17
2019-03-26T09:56:32.071Z,79.25
2019-03-26T09:59:00.862Z,75.70
2019-03-26T10:01:31.592Z,73.47
2019-03-26T10:04:03.795Z,69.92
2019-03-26T10:06:36.130Z,83.27
2019-03-26T10:09:07.281Z,104.17
2019-03-26T10:11:37.933Z,100.47
2019-03-26T10:14:10.482Z,105.97
2019-03-26T10:16:41.129Z,98.05
2019-03-26T10:19:16.776Z,101.87
2019-03-26T10:24:17.915Z,103.72
2019-03-26T10:26:48.543Z,110.95
2019-03-26T10:29:29.920Z,111.90
2019-03-26T10:31:52.776Z,90.87
2019-03-26T10:34:23.816Z,96.92
2019-03-26T10:36:54.752Z,84.47
2019-03-26T10:39:25.077Z,84.40
2019-03-26T10:41:55.743Z,90.22
2019-03-26T10:44:26.802Z,94.05
2019-03-26T10:46:57.583Z,97.00
2019-03-26T10:49:28.412Z,93.72
2019-03-26T10:51:59.254Z,91.40
2019-03-26T10:54:30.392Z,74.05
2019-03-26T10:57:01.122Z,75.12
2019-03-26T10:59:31.762Z,71.30
2019-03-26T11:02:02.557Z,72.70
2019-03-26T11:04:33.425Z,62.48
2019-03-26T11:07:04.051Z,65.50
2019-03-26T11:09:34.688Z,67.12
2019-03-26T11:12:05.411Z,56.63
2019-03-26T11:14:36.976Z,58.08
2019-03-26T11:17:07.701Z,70.57
2019-03-26T11:19:38.336Z,67.15
2019-03-26T11:22:08.968Z,75.62
2019-03-26T11:24:39.809Z,77.70
2019-03-26T11:27:11.040Z,86.87
2019-03-26T11:29:41.836Z,77.15
2019-03-26T11:32:12.708Z,74.42
2019-03-26T11:34:43.136Z,72.03
2019-03-26T11:37:15.611Z,64.27
2019-03-26T11:39:46.065Z,65.72
2019-03-26T11:42:17.406Z,89.10
2019-03-26T11:44:47.706Z,71.42
2019-03-26T11:47:18.333Z,76.60
2019-03-26T11:49:48.967Z,63.63
2019-03-26T11:52:20.818Z,70.10
2019-03-26T11:54:51.156Z,62.53
2019-03-26T11:57:23.230Z,63.65
2019-03-26T11:59:53.945Z,63.30
2019-03-26T12:02:24.800Z,66.92
2019-03-26T12:04:55.616Z,60.50
2019-03-26T12:07:26.466Z,49.95
2019-03-26T12:09:57.279Z,53.63
2019-03-26T12:12:28.015Z,52.10
2019-03-26T12:14:58.746Z,49.30
2019-03-26T12:17:29.584Z,49.63
2019-03-26T12:20:00.417Z,45.08
2019-03-26T12:22:31.545Z,42.78
2019-03-26T12:25:02.663Z,49.45
2019-03-26T12:27:36.316Z,53.38
2019-03-26T12:30:07.726Z,55.28
2019-03-26T12:32:40.839Z,33.85
2019-03-26T12:35:11.830Z,40.85
2019-03-26T12:37:42.608Z,41.08
2019-03-26T12:40:14.160Z,38.08
2019-03-26T12:42:44.483Z,39.20
2019-03-26T12:45:15.334Z,49.30
2019-03-26T12:47:46.969Z,51.25
2019-03-26T12:50:17.613Z,33.95
2019-03-26T12:52:47.913Z,54.42
2019-03-26T12:55:18.659Z,28.73
2019-03-26T12:57:49.490Z,31.82
2019-03-26T13:00:23.398Z,31.00
2019-03-26T13:02:54.231Z,33.13
2019-03-26T13:05:24.939Z,58.92
2019-03-26T13:07:58.019Z,37.70
2019-03-26T13:10:28.682Z,35.80
2019-03-26T13:12:59.727Z,40.45
2019-03-26T13:15:30.761Z,52.95
2019-03-26T13:18:01.400Z,50.78
2019-03-26T13:20:32.111Z,39.65
2019-03-26T13:23:02.858Z,33.35
2019-03-26T13:25:33.908Z,38.23
2019-03-26T13:28:05.760Z,33.23
2019-03-26T13:30:37.006Z,34.78
2019-03-26T13:33:07.946Z,37.70
2019-03-26T13:35:39.080Z,31.55
2019-03-26T13:38:09.415Z,32.35
2019-03-26T13:40:40.048Z,32.80
2019-03-26T13:43:10.664Z,36.73
2019-03-26T13:45:41.392Z,32.80
2019-03-26T13:48:13.759Z,31.97
2019-03-26T13:50:44.398Z,31.42
2019-03-26T13:53:15.129Z,29.00
2019-03-26T13:55:47.607Z,30.12
2019-03-26T13:58:17.941Z,31.42
2019-03-26T14:00:49.686Z,27.30
2019-03-26T14:03:20.414Z,27.93
2019-03-26T14:05:51.246Z,29.15
2019-03-26T14:08:21.981Z,33.78
2019-03-26T14:10:52.837Z,29.82
2019-03-26T14:13:23.549Z,26.40
2019-03-26T14:15:54.593Z,33.48
2019-03-26T14:18:27.372Z,34.50
2019-03-26T14:20:57.898Z,35.55
2019-03-26T14:23:29.145Z,32.25
2019-03-26T14:25:59.975Z,43.98
2019-03-26T14:28:32.765Z,41.68
2019-03-26T14:31:03.490Z,46.08
2019-03-26T14:33:34.141Z,40.90
2019-03-26T14:36:05.270Z,52.03
2019-03-26T14:38:37.479Z,50.83
2019-03-26T14:41:08.679Z,52.75
2019-03-26T14:43:39.308Z,48.68
2019-03-26T14:46:10.035Z,41.00
2019-03-26T14:48:42.877Z,39.70
2019-03-26T14:51:13.652Z,53.53
2019-03-26T14:53:46.126Z,34.65
2019-03-26T14:56:17.669Z,45.48
2019-03-26T14:58:48.207Z,43.48
2019-03-26T15:01:19.142Z,51.23
2019-03-26T15:03:50.386Z,55.20
2019-03-26T15:06:21.720Z,52.58
2019-03-26T15:08:52.159Z,51.70
2019-03-26T15:11:23.298Z,40.70
2019-03-26T15:13:55.516Z,50.40
2019-03-26T15:16:26.916Z,43.92
2019-03-26T15:18:57.644Z,42.93
2019-03-26T15:21:29.710Z,44.58
2019-03-26T15:24:00.956Z,45.78
2019-03-26T15:26:32.198Z,35.65
2019-03-26T15:29:02.711Z,38.38
2019-03-26T15:31:33.483Z,36.40
2019-03-26T15:34:04.206Z,31.55
2019-03-26T15:36:34.914Z,41.68
2019-03-26T15:39:07.712Z,40.08
2019-03-26T15:41:39.061Z,34.15
2019-03-26T15:44:09.481Z,38.30
2019-03-26T15:46:40.621Z,36.77
2019-03-26T15:49:11.233Z,29.55
2019-03-26T15:51:44.212Z,31.00
2019-03-26T15:54:14.768Z,49.10
2019-03-26T15:56:45.600Z,55.60
2019-03-26T15:59:16.434Z,51.50
2019-03-26T16:01:47.171Z,55.38
2019-03-26T16:04:18.017Z,55.23
2019-03-26T16:06:48.657Z,48.68
2019-03-26T16:09:19.468Z,58.92
2019-03-26T16:11:50.899Z,41.85
2019-03-26T16:14:21.765Z,55.45
2019-03-26T16:16:54.430Z,49.67
2019-03-26T16:19:32.552Z,44.67
2019-03-26T16:21:59.587Z,50.48
2019-03-26T16:24:30.316Z,43.50
2019-03-26T16:27:00.952Z,43.40
2019-03-26T16:29:34.343Z,48.50
2019-03-26T16:32:04.868Z,48.17
2019-03-26T16:34:37.071Z,48.10
2019-03-26T16:37:07.351Z,42.43
2019-03-26T16:39:38.487Z,43.78
2019-03-26T16:42:10.048Z,47.35
2019-03-26T16:44:40.886Z,46.85
2019-03-26T16:47:11.529Z,41.92
2019-03-26T16:49:42.569Z,47.43
2019-03-26T16:52:15.745Z,49.40
2019-03-26T16:54:47.394Z,49.70
2019-03-26T16:57:18.248Z,45.78
2019-03-26T16:59:49.032Z,42.83
2019-03-26T17:02:21.331Z,47.23
2019-03-26T17:04:52.905Z,48.05
2019-03-26T17:07:23.722Z,48.58
2019-03-26T17:09:54.452Z,49.48
2019-03-26T17:12:25.122Z,50.45
2019-03-26T17:14:55.713Z,53.78
2019-03-26T17:17:26.549Z,54.60
2019-03-26T17:19:59.850Z,44.85
2019-03-26T17:22:30.175Z,57.90
2019-03-26T17:25:00.795Z,50.98
2019-03-26T17:27:31.526Z,69.85
2019-03-26T17:30:02.359Z,53.05
2019-03-26T17:32:33.307Z,57.00
2019-03-26T17:35:05.451Z,59.48
2019-03-26T17:37:36.795Z,52.78
2019-03-26T17:40:07.020Z,56.65
2019-03-26T17:42:37.761Z,61.98
2019-03-26T17:45:08.532Z,70.83
2019-03-26T17:47:39.216Z,59.18
2019-03-26T17:50:10.677Z,56.08
2019-03-26T17:52:41.088Z,56.83
2019-03-26T17:55:12.454Z,51.37
2019-03-26T17:57:43.999Z,56.45
2019-03-26T18:00:16.654Z,51.95
2019-03-26T18:02:47.409Z,58.83
2019-03-26T18:05:26.240Z,50.55
2019-03-26T18:07:56.840Z,54.42
2019-03-26T18:10:27.285Z,51.25
2019-03-26T18:12:58.225Z,59.53
2019-03-26T18:15:28.956Z,55.95
2019-03-26T18:17:59.692Z,51.92
2019-03-26T18:20:32.765Z,49.10
2019-03-26T18:23:02.815Z,59.33
2019-03-26T18:25:33.630Z,53.48
2019-03-26T18:28:04.054Z,57.27
2019-03-26T18:30:34.891Z,55.65
2019-03-26T18:33:05.624Z,56.48
2019-03-26T18:35:36.368Z,57.90
2019-03-26T18:38:07.198Z,53.55
2019-03-26T18:40:38.857Z,58.25
2019-03-26T18:43:09.984Z,57.00
2019-03-26T18:45:41.575Z,50.48
2019-03-26T18:48:12.172Z,47.25
2019-03-26T18:50:44.437Z,44.33
2019-03-26T18:53:14.965Z,48.78
2019-03-26T18:55:46.309Z,49.33
2019-03-26T18:58:16.557Z,43.58
2019-03-26T19:00:48.187Z,49.15
2019-03-26T19:03:20.150Z,45.52
2019-03-26T19:05:51.084Z,50.17
2019-03-26T19:08:22.415Z,50.30
2019-03-26T19:10:53.268Z,47.58
2019-03-26T19:13:23.930Z,48.98
2019-03-26T19:15:54.631Z,52.78
2019-03-26T19:18:27.226Z,49.30
2019-03-26T19:21:02.344Z,48.35
2019-03-26T19:23:32.608Z,45.75
2019-03-26T19:26:03.194Z,56.23
2019-03-26T19:28:33.902Z,45.80
2019-03-26T19:31:05.375Z,50.75
2019-03-26T19:33:35.801Z,47.98
2019-03-26T19:36:06.743Z,50.33
2019-03-26T19:38:37.273Z,48.17
2019-03-26T19:41:08.105Z,51.00
2019-03-26T19:43:38.938Z,47.30
2019-03-26T19:46:13.043Z,51.28
2019-03-26T19:48:44.798Z,52.48
2019-03-26T19:51:15.960Z,47.43
2019-03-26T19:53:47.566Z,48.15
2019-03-26T19:56:17.898Z,54.25
2019-03-26T19:58:48.654Z,52.53
2019-03-26T20:01:19.814Z,49.53
2019-03-26T20:03:50.215Z,56.55
2019-03-26T20:06:20.725Z,49.83
2019-03-26T20:08:51.583Z,50.50
2019-03-26T20:11:22.519Z,48.33
2019-03-26T20:13:53.147Z,50.52
2019-03-26T20:16:23.850Z,57.55
2019-03-26T20:18:54.733Z,78.37
2019-03-26T20:21:25.301Z,57.43
2019-03-26T20:23:56.181Z,54.03
2019-03-26T20:26:27.425Z,49.85
2019-03-26T20:28:58.220Z,47.50
2019-03-26T20:31:29.003Z,51.08
2019-03-26T20:34:00.545Z,55.48
2019-03-26T20:36:31.276Z,51.30
2019-03-26T20:39:02.008Z,47.10
2019-03-26T20:41:32.753Z,50.58
2019-03-26T20:44:03.478Z,52.62
2019-03-26T20:46:35.746Z,50.40
2019-03-26T20:49:06.843Z,56.68
2019-03-26T20:51:37.416Z,57.00
2019-03-26T20:54:08.012Z,52.40
2019-03-26T20:56:40.821Z,53.92
2019-03-26T20:59:10.838Z,47.93
2019-03-26T21:01:45.511Z,47.45
2019-03-26T21:04:16.003Z,56.20
2019-03-26T21:06:46.725Z,48.65
2019-03-26T21:09:18.963Z,55.03
2019-03-26T21:11:50.212Z,50.85
2019-03-26T21:14:20.964Z,51.88
2019-03-26T21:16:52.703Z,51.85
2019-03-26T21:19:23.145Z,49.60
2019-03-26T21:21:55.313Z,44.13
2019-03-26T21:24:26.047Z,41.02
2019-03-26T21:26:58.510Z,39.90
2019-03-26T21:29:29.357Z,46.80
2019-03-26T21:32:00.158Z,38.78
2019-03-26T21:34:32.717Z,42.40
2019-03-26T21:37:03.601Z,45.83
2019-03-26T21:39:34.233Z,37.60
2019-03-26T21:42:05.312Z,41.50
2019-03-26T21:44:35.878Z,45.28
2019-03-26T21:47:06.741Z,38.88
2019-03-26T21:49:37.493Z,41.20
2019-03-26T21:52:08.814Z,39.67
2019-03-26T21:54:39.142Z,41.30
2019-03-26T21:57:11.306Z,39.50
2019-03-26T21:59:41.822Z,42.67
2019-03-26T22:02:12.667Z,40.98
2019-03-26T22:04:43.707Z,40.17
2019-03-26T22:07:14.439Z,39.85
2019-03-26T22:09:45.173Z,40.48
2019-03-26T22:12:16.026Z,46.28
2019-03-26T22:14:46.844Z,50.65
2019-03-26T22:17:17.475Z,55.20
2019-03-26T22:19:48.275Z,68.62
2019-03-26T22:22:19.139Z,64.27
2019-03-26T22:24:52.127Z,51.85
2019-03-26T22:27:22.860Z,47.55
2019-03-26T22:29:53.901Z,37.05
2019-03-26T22:32:24.630Z,34.65
2019-03-26T22:34:55.155Z,38.55
2019-03-26T22:37:25.888Z,35.25
2019-03-26T22:39:56.623Z,40.10
2019-03-26T22:42:27.766Z,38.73
2019-03-26T22:44:59.209Z,34.10
2019-03-26T22:47:30.015Z,39.67
2019-03-26T22:50:00.777Z,39.67
2019-03-26T22:52:31.931Z,39.90
2019-03-26T22:55:03.417Z,37.03
2019-03-26T22:57:34.517Z,38.25
2019-03-26T23:00:16.837Z,37.17
2019-03-26T23:02:48.370Z,39.38
2019-03-26T23:05:18.628Z,43.63
2019-03-26T23:07:49.836Z,41.02
2019-03-26T23:10:22.544Z,44.50
2019-03-26T23:12:53.144Z,37.85
2019-03-26T23:15:26.741Z,37.03
2019-03-26T23:17:57.382Z,39.53
2019-03-26T23:20:29.641Z,38.20
2019-03-26T23:23:00.272Z,42.67
2019-03-26T23:25:31.727Z,45.15
2019-03-26T23:28:01.934Z,43.68
2019-03-26T23:30:33.799Z,40.43
2019-03-26T23:33:04.226Z,41.02
2019-03-26T23:35:34.859Z,44.30
2019-03-26T23:38:05.490Z,42.03
2019-03-26T23:40:37.735Z,44.45
2019-03-26T23:43:08.486Z,39.67
2019-03-26T23:45:39.115Z,38.70
2019-03-26T23:48:09.850Z,43.83
2019-03-26T23:50:40.364Z,35.65
2019-03-26T23:53:11.009Z,42.45
2019-03-26T23:55:41.739Z,38.05
2019-03-26T23:58:12.376Z,41.53
